createdAt,value
2023-08-29T00:01:14.756Z,69.69
2023-08-29T00:03:41.653Z,69.53
2023-08-29T00:06:08.311Z,69.52
2023-08-29T00:08:35.154Z,69.85
2023-08-29T00:11:10.585Z,69.53
2023-08-29T00:13:37.366Z,69.69
2023-08-29T00:16:04.466Z,69.60
2023-08-29T00:18:31.389Z,69.78
2023-08-29T00:20:58.359Z,69.50
2023-08-29T00:23:26.151Z,69.95
2023-08-29T00:25:53.096Z,69.65
2023-08-29T00:28:19.883Z,70.08
2023-08-29T00:30:47.035Z,69.99
2023-08-29T00:33:14.220Z,69.90
2023-08-29T00:35:41.742Z,69.82
2023-08-29T00:38:12.173Z,69.62
2023-08-29T00:40:39.032Z,69.95
2023-08-29T00:43:06.097Z,69.88
2023-08-29T00:45:40.908Z,69.70
2023-08-29T00:48:09.496Z,69.96
2023-08-29T00:50:37.279Z,69.65
2023-08-29T00:53:06.804Z,69.46
2023-08-29T00:55:35.478Z,69.73
2023-08-29T00:58:04.115Z,69.53
2023-08-29T01:00:32.517Z,69.58
2023-08-29T01:03:00.592Z,69.84
2023-08-29T01:05:29.790Z,69.92
2023-08-29T01:08:01.178Z,69.86
2023-08-29T01:10:38.061Z,69.66
2023-08-29T01:13:27.845Z,69.95
2023-08-29T01:15:59.718Z,69.61
2023-08-29T01:18:31.899Z,69.77
2023-08-29T01:21:11.774Z,69.75
2023-08-29T01:23:45.717Z,69.88
2023-08-29T01:26:17.613Z,69.96
2023-08-29T01:28:46.999Z,69.65
2023-08-29T01:31:14.861Z,69.98
2023-08-29T01:33:42.378Z,69.72
2023-08-29T01:36:10.005Z,69.71
2023-08-29T01:38:36.703Z,69.90
2023-08-29T01:41:03.688Z,70.20
2023-08-29T01:43:30.960Z,70.06
2023-08-29T01:45:58.096Z,70.25
2023-08-29T01:48:25.149Z,70.37
2023-08-29T01:50:52.501Z,70.13
2023-08-29T01:53:19.237Z,69.75
2023-08-29T01:55:47.933Z,69.87
2023-08-29T01:58:15.902Z,69.97
2023-08-29T02:00:43.961Z,70.22
2023-08-29T02:03:10.898Z,69.92
2023-08-29T02:05:37.658Z,69.87
2023-08-29T02:08:04.867Z,70.33
2023-08-29T02:10:32.034Z,69.87
2023-08-29T02:12:59.254Z,69.96
2023-08-29T02:15:25.924Z,70.32
2023-08-29T02:17:54.806Z,69.82
2023-08-29T02:20:21.898Z,69.91
2023-08-29T02:22:48.781Z,70.20
2023-08-29T02:25:15.579Z,70.10
2023-08-29T02:27:42.395Z,70.24
2023-08-29T02:30:09.726Z,70.26
2023-08-29T02:32:36.805Z,70.05
2023-08-29T02:35:05.325Z,70.23
2023-08-29T02:37:34.189Z,70.02
2023-08-29T02:40:00.898Z,69.92
2023-08-29T02:42:27.848Z,69.94
2023-08-29T02:44:55.176Z,70.04
2023-08-29T02:47:21.860Z,70.07
2023-08-29T02:49:48.527Z,70.35
2023-08-29T02:52:15.642Z,70.09
2023-08-29T02:54:43.231Z,70.25
2023-08-29T02:57:09.982Z,70.15
2023-08-29T02:59:36.641Z,70.30
2023-08-29T03:02:04.641Z,70.01
2023-08-29T03:04:31.595Z,70.07
2023-08-29T03:06:59.041Z,69.92
2023-08-29T03:09:25.853Z,70.10
2023-08-29T03:11:52.619Z,70.27
2023-08-29T03:14:19.301Z,70.15
2023-08-29T03:16:46.019Z,70.08
2023-08-29T03:19:12.806Z,70.27
2023-08-29T03:21:39.481Z,70.25
2023-08-29T03:24:08.503Z,69.72
2023-08-29T03:26:35.304Z,69.83
2023-08-29T03:29:02.346Z,70.31
2023-08-29T03:31:29.030Z,70.00
2023-08-29T03:33:55.873Z,70.01
2023-08-29T03:36:23.088Z,70.02
2023-08-29T03:38:50.037Z,70.08
2023-08-29T03:41:16.723Z,70.19
2023-08-29T03:43:43.506Z,70.06
2023-08-29T03:46:10.501Z,70.01
2023-08-29T03:48:38.296Z,70.22
2023-08-29T03:51:08.594Z,69.95
2023-08-29T03:53:39.366Z,70.37
2023-08-29T03:56:09.581Z,69.66
2023-08-29T03:58:36.848Z,70.14
2023-08-29T04:01:05.260Z,70.17
2023-08-29T04:03:32.779Z,70.11
2023-08-29T04:06:00.052Z,70.19
2023-08-29T04:08:26.766Z,70.20
2023-08-29T04:10:53.408Z,70.14
2023-08-29T04:13:20.474Z,69.82
2023-08-29T04:15:47.279Z,70.12
2023-08-29T04:18:14.134Z,70.23
2023-08-29T04:20:40.991Z,70.31
2023-08-29T04:23:08.587Z,70.12
2023-08-29T04:25:37.568Z,69.97
2023-08-29T04:28:05.858Z,70.11
2023-08-29T04:30:32.958Z,70.46
2023-08-29T04:33:00.861Z,70.21
2023-08-29T04:35:27.995Z,70.22
2023-08-29T04:37:55.791Z,70.20
2023-08-29T04:40:23.148Z,70.06
2023-08-29T04:42:52.736Z,70.31
2023-08-29T04:45:20.245Z,70.30
2023-08-29T04:47:47.086Z,70.49
2023-08-29T04:50:15.061Z,69.94
2023-08-29T04:52:41.862Z,70.10
2023-08-29T04:55:08.695Z,70.69
2023-08-29T04:57:35.374Z,70.30
2023-08-29T05:00:02.077Z,70.54
2023-08-29T05:02:29.101Z,70.31
2023-08-29T05:04:55.854Z,69.97
2023-08-29T05:07:22.705Z,70.43
2023-08-29T05:09:49.512Z,70.41
2023-08-29T05:12:17.664Z,70.46
2023-08-29T05:14:44.476Z,70.65
2023-08-29T05:17:11.463Z,69.97
2023-08-29T05:19:38.659Z,70.55
2023-08-29T05:22:05.770Z,70.43
2023-08-29T05:24:33.212Z,70.45
2023-08-29T05:26:59.958Z,70.39
2023-08-29T05:29:26.630Z,70.36
2023-08-29T05:31:53.294Z,70.63
2023-08-29T05:34:20.113Z,70.49
2023-08-29T05:36:50.070Z,70.68
2023-08-29T05:39:16.910Z,70.81
2023-08-29T05:41:43.597Z,70.69
2023-08-29T05:44:10.258Z,70.71
2023-08-29T05:46:37.149Z,70.56
2023-08-29T05:49:04.913Z,70.73
2023-08-29T05:51:31.825Z,70.58
2023-08-29T05:53:58.702Z,70.61
2023-08-29T05:56:25.364Z,70.70
2023-08-29T05:58:52.157Z,70.42
2023-08-29T06:01:19.214Z,70.44
2023-08-29T06:03:45.964Z,70.43
2023-08-29T06:06:12.760Z,70.73
2023-08-29T06:08:41.542Z,70.38
2023-08-29T06:11:08.393Z,70.27
2023-08-29T06:13:35.175Z,70.22
2023-08-29T06:16:01.966Z,70.24
2023-08-29T06:18:28.670Z,70.31
2023-08-29T06:20:55.451Z,70.56
2023-08-29T06:23:22.347Z,70.10
2023-08-29T06:25:50.345Z,70.22
2023-08-29T06:28:17.298Z,70.41
2023-08-29T06:30:44.275Z,70.71
2023-08-29T06:33:11.126Z,70.68
2023-08-29T06:35:42.171Z,70.62
2023-08-29T06:38:09.562Z,70.74
2023-08-29T06:40:37.239Z,70.86
2023-08-29T06:43:04.275Z,70.65
2023-08-29T06:45:31.039Z,70.77
2023-08-29T06:47:57.892Z,70.59
2023-08-29T06:50:24.880Z,71.03
2023-08-29T06:52:51.781Z,70.76
2023-08-29T06:55:18.547Z,70.87
2023-08-29T06:57:45.482Z,70.86
2023-08-29T07:00:14.350Z,71.01
2023-08-29T07:02:41.649Z,70.67
2023-08-29T07:05:08.598Z,71.12
2023-08-29T07:07:37.679Z,70.79
2023-08-29T07:10:05.549Z,70.73
2023-08-29T07:12:33.686Z,71.19
2023-08-29T07:15:02.140Z,70.74
2023-08-29T07:17:29.205Z,70.85
2023-08-29T07:19:56.709Z,70.55
2023-08-29T07:22:24.858Z,70.46
2023-08-29T07:24:53.078Z,70.75
2023-08-29T07:27:20.227Z,70.86
2023-08-29T07:29:46.936Z,71.21
2023-08-29T07:32:13.665Z,71.30
2023-08-29T07:34:41.425Z,71.20
2023-08-29T07:37:09.279Z,71.01
2023-08-29T07:39:36.276Z,71.02
2023-08-29T07:42:04.568Z,71.34
2023-08-29T07:44:31.850Z,71.25
2023-08-29T07:47:14.205Z,70.97
2023-08-29T07:49:42.501Z,71.08
2023-08-29T07:52:10.370Z,70.82
2023-08-29T07:54:37.079Z,70.84
2023-08-29T07:57:04.063Z,70.95
2023-08-29T07:59:30.751Z,71.16
2023-08-29T08:01:57.580Z,71.23
2023-08-29T08:04:24.461Z,71.40
2023-08-29T08:06:51.219Z,71.50
2023-08-29T08:09:17.994Z,71.25
2023-08-29T08:11:44.700Z,71.26
2023-08-29T08:14:12.855Z,71.39
2023-08-29T08:16:39.638Z,71.60
2023-08-29T08:19:06.687Z,72.03
2023-08-29T08:21:33.412Z,72.03
2023-08-29T08:24:00.045Z,72.21
2023-08-29T08:26:27.684Z,71.63
2023-08-29T08:28:56.175Z,71.50
2023-08-29T08:31:23.364Z,71.62
2023-08-29T08:33:51.797Z,71.43
2023-08-29T08:36:18.675Z,71.55
2023-08-29T08:38:45.357Z,71.79
2023-08-29T08:41:12.759Z,71.68
2023-08-29T08:43:42.350Z,71.44
2023-08-29T08:46:10.736Z,71.58
2023-08-29T08:48:39.414Z,71.08
2023-08-29T08:51:07.192Z,71.02
2023-08-29T08:53:34.504Z,71.37
2023-08-29T08:56:01.677Z,71.20
2023-08-29T08:58:28.587Z,71.01
2023-08-29T09:00:56.310Z,70.92
2023-08-29T09:03:23.519Z,71.06
2023-08-29T09:05:51.164Z,71.34
2023-08-29T09:08:21.575Z,71.59
2023-08-29T09:10:48.775Z,71.36
2023-08-29T09:13:19.339Z,71.38
2023-08-29T09:15:49.530Z,71.32
2023-08-29T09:18:27.746Z,71.04
2023-08-29T09:20:54.521Z,71.13
2023-08-29T09:23:23.616Z,70.97
2023-08-29T09:25:56.114Z,71.07
2023-08-29T09:28:26.433Z,71.42
2023-08-29T09:30:53.144Z,71.48
2023-08-29T09:33:23.947Z,70.95
2023-08-29T09:35:51.167Z,71.31
2023-08-29T09:38:21.744Z,71.21
2023-08-29T09:40:50.573Z,71.38
2023-08-29T09:43:18.496Z,71.16
2023-08-29T09:45:53.478Z,71.22
2023-08-29T09:48:21.123Z,71.49
2023-08-29T09:50:50.059Z,71.57
2023-08-29T09:53:21.275Z,71.19
2023-08-29T09:56:06.593Z,71.37
2023-08-29T09:58:34.049Z,71.62
2023-08-29T10:01:01.688Z,71.48
2023-08-29T10:03:30.141Z,71.41
2023-08-29T10:05:58.837Z,71.67
2023-08-29T10:08:38.112Z,71.29
2023-08-29T10:11:07.404Z,71.64
2023-08-29T10:13:38.512Z,71.66
2023-08-29T10:16:05.912Z,71.92
2023-08-29T10:18:34.776Z,71.58
2023-08-29T10:21:04.018Z,71.47
2023-08-29T10:23:32.382Z,71.28
2023-08-29T10:26:01.347Z,71.46
2023-08-29T10:28:30.230Z,71.19
2023-08-29T10:31:02.019Z,71.09
2023-08-29T10:33:29.149Z,71.19
2023-08-29T10:35:56.027Z,71.14
2023-08-29T10:38:26.229Z,71.26
2023-08-29T10:41:04.239Z,71.00
2023-08-29T10:43:31.374Z,70.85
2023-08-29T10:46:00.937Z,70.99
2023-08-29T10:48:31.376Z,71.28
2023-08-29T10:51:12.853Z,71.31
2023-08-29T10:53:48.883Z,71.09
2023-08-29T10:56:19.435Z,70.90
2023-08-29T10:58:48.930Z,71.23
2023-08-29T11:01:37.580Z,71.42
2023-08-29T11:04:17.301Z,71.01
2023-08-29T11:06:57.894Z,71.11
2023-08-29T11:09:26.307Z,70.82
2023-08-29T11:12:10.756Z,71.09
2023-08-29T11:15:08.360Z,70.55
2023-08-29T11:17:36.122Z,70.82
2023-08-29T11:20:03.541Z,70.68
2023-08-29T11:22:31.062Z,70.58
2023-08-29T11:24:59.070Z,70.58
2023-08-29T11:27:28.772Z,70.25
2023-08-29T11:30:11.191Z,70.13
2023-08-29T11:32:42.976Z,70.00
2023-08-29T11:35:12.726Z,69.88
2023-08-29T11:37:40.112Z,69.94
2023-08-29T11:40:11.400Z,69.80
2023-08-29T11:43:18.767Z,70.06
2023-08-29T11:45:46.141Z,69.88
2023-08-29T11:48:23.225Z,70.08
2023-08-29T11:50:52.701Z,70.43
2023-08-29T11:53:32.093Z,69.95
2023-08-29T11:56:00.571Z,69.87
2023-08-29T11:58:32.486Z,69.73
2023-08-29T12:01:02.196Z,69.89
2023-08-29T12:03:29.016Z,69.96
2023-08-29T12:05:58.282Z,69.86
2023-08-29T12:08:39.240Z,70.02
2023-08-29T12:11:08.094Z,70.17
2023-08-29T12:13:36.729Z,69.95
2023-08-29T12:16:05.702Z,70.00
2023-08-29T12:18:33.843Z,70.46
2023-08-29T12:21:30.299Z,69.74
2023-08-29T12:24:10.673Z,69.81
2023-08-29T12:26:37.457Z,69.78
2023-08-29T12:29:04.458Z,69.43
2023-08-29T12:31:31.328Z,69.98
2023-08-29T12:33:58.152Z,70.11
2023-08-29T12:36:24.842Z,70.04
2023-08-29T12:38:51.571Z,69.79
2023-08-29T12:41:19.008Z,70.00
2023-08-29T12:43:45.722Z,70.06
2023-08-29T12:46:12.405Z,70.07
2023-08-29T12:48:39.161Z,69.81
2023-08-29T12:51:06.568Z,69.75
2023-08-29T12:53:33.426Z,69.74
2023-08-29T12:56:00.583Z,69.98
2023-08-29T12:58:27.243Z,69.79
2023-08-29T13:00:53.938Z,70.16
2023-08-29T13:03:22.136Z,70.11
2023-08-29T13:05:48.995Z,70.40
2023-08-29T13:08:16.858Z,69.82
2023-08-29T13:10:44.165Z,69.73
2023-08-29T13:13:10.915Z,70.15
2023-08-29T13:15:50.576Z,69.84
2023-08-29T13:18:18.944Z,70.15
2023-08-29T13:20:46.051Z,69.83
2023-08-29T13:23:12.749Z,69.91
2023-08-29T13:25:39.519Z,69.80
2023-08-29T13:28:06.650Z,69.71
2023-08-29T13:30:34.454Z,70.20
2023-08-29T13:33:01.175Z,69.86
2023-08-29T13:35:27.825Z,69.74
2023-08-29T13:37:54.532Z,70.37
2023-08-29T13:40:21.964Z,69.87
2023-08-29T13:42:50.479Z,69.50
2023-08-29T13:45:17.705Z,70.07
2023-08-29T13:47:46.161Z,69.73
2023-08-29T13:50:13.182Z,70.05
2023-08-29T13:52:39.830Z,69.82
2023-08-29T13:55:06.832Z,70.18
2023-08-29T13:57:33.558Z,70.35
2023-08-29T14:00:00.295Z,70.23
2023-08-29T14:02:27.560Z,70.42
2023-08-29T14:04:54.632Z,70.49
2023-08-29T14:07:21.896Z,70.12
2023-08-29T14:09:48.776Z,70.43
2023-08-29T14:12:15.826Z,70.24
2023-08-29T14:14:43.201Z,70.42
2023-08-29T14:17:10.112Z,70.16
2023-08-29T14:19:36.762Z,70.36
2023-08-29T14:22:05.380Z,70.15
2023-08-29T14:24:32.553Z,70.35
2023-08-29T14:26:59.520Z,70.22
2023-08-29T14:29:30.330Z,70.51
2023-08-29T14:31:57.906Z,70.50
2023-08-29T14:34:24.878Z,70.39
2023-08-29T14:36:51.530Z,70.47
2023-08-29T14:39:18.427Z,70.24
2023-08-29T14:41:45.421Z,70.40
2023-08-29T14:44:12.354Z,70.30
2023-08-29T14:46:39.348Z,70.55
2023-08-29T14:49:06.308Z,70.57
2023-08-29T14:51:33.409Z,70.52
2023-08-29T14:54:04.441Z,70.55
2023-08-29T14:56:31.513Z,70.33
2023-08-29T14:59:00.799Z,70.64
2023-08-29T15:01:28.132Z,70.03
2023-08-29T15:03:55.390Z,70.10
2023-08-29T15:06:22.257Z,70.46
2023-08-29T15:08:49.442Z,70.57
2023-08-29T15:11:16.531Z,70.46
2023-08-29T15:13:43.393Z,70.50
2023-08-29T15:16:10.168Z,70.40
2023-08-29T15:18:37.165Z,70.45
2023-08-29T15:21:04.314Z,70.12
2023-08-29T15:23:31.212Z,70.27
2023-08-29T15:25:58.724Z,70.04
2023-08-29T15:28:32.365Z,70.21
2023-08-29T15:31:02.050Z,70.26
2023-08-29T15:33:29.709Z,70.32
2023-08-29T15:35:58.239Z,70.26
2023-08-29T15:38:25.809Z,70.21
2023-08-29T15:40:56.353Z,70.35
2023-08-29T15:43:26.188Z,70.31
2023-08-29T15:45:53.489Z,70.36
2023-08-29T15:48:20.329Z,70.63
2023-08-29T15:50:47.249Z,70.43
2023-08-29T15:53:14.678Z,70.35
2023-08-29T15:55:42.699Z,70.32
2023-08-29T15:58:10.083Z,70.17
2023-08-29T16:00:38.207Z,70.57
2023-08-29T16:03:07.745Z,70.40
2023-08-29T16:05:34.797Z,70.38
2023-08-29T16:08:02.277Z,70.46
2023-08-29T16:10:28.979Z,70.47
2023-08-29T16:12:56.094Z,70.72
2023-08-29T16:15:22.784Z,70.37
2023-08-29T16:17:49.816Z,70.51
2023-08-29T16:20:16.765Z,70.37
2023-08-29T16:22:43.470Z,70.38
2023-08-29T16:25:10.617Z,70.59
2023-08-29T16:27:37.525Z,70.31
2023-08-29T16:30:06.350Z,70.75
2023-08-29T16:32:33.391Z,70.69
2023-08-29T16:35:00.569Z,70.80
2023-08-29T16:37:27.381Z,70.71
2023-08-29T16:39:54.292Z,70.34
2023-08-29T16:42:21.142Z,70.82
2023-08-29T16:44:48.257Z,70.58
2023-08-29T16:47:15.145Z,70.31
2023-08-29T16:49:41.989Z,70.40
2023-08-29T16:52:09.864Z,70.18
2023-08-29T16:54:36.660Z,70.54
2023-08-29T16:57:04.652Z,70.37
2023-08-29T16:59:33.304Z,70.63
2023-08-29T17:02:00.285Z,70.27
2023-08-29T17:04:29.228Z,70.34
2023-08-29T17:06:56.151Z,70.32
2023-08-29T17:09:22.910Z,70.36
2023-08-29T17:11:49.727Z,70.57
2023-08-29T17:14:16.686Z,70.71
2023-08-29T17:16:43.463Z,70.32
2023-08-29T17:19:12.884Z,70.42
2023-08-29T17:21:41.260Z,70.49
2023-08-29T17:24:08.276Z,70.56
2023-08-29T17:26:35.727Z,70.54
2023-08-29T17:29:02.564Z,70.59
2023-08-29T17:31:29.364Z,70.47
2023-08-29T17:33:56.223Z,70.36
2023-08-29T17:36:23.071Z,70.64
2023-08-29T17:38:49.886Z,70.43
2023-08-29T17:41:16.678Z,70.64
2023-08-29T17:43:43.443Z,70.42
2023-08-29T17:46:10.222Z,70.64
2023-08-29T17:48:36.986Z,70.67
2023-08-29T17:51:04.224Z,70.77
2023-08-29T17:53:31.360Z,70.79
2023-08-29T17:55:58.391Z,70.64
2023-08-29T17:58:25.815Z,70.79
2023-08-29T18:00:53.661Z,70.70
2023-08-29T18:03:20.797Z,70.81
2023-08-29T18:05:49.560Z,70.79
2023-08-29T18:08:17.754Z,70.92
2023-08-29T18:10:45.301Z,70.98
2023-08-29T18:13:13.426Z,70.82
2023-08-29T18:15:41.182Z,70.75
2023-08-29T18:18:29.339Z,70.95
2023-08-29T18:20:58.425Z,71.20
2023-08-29T18:23:26.771Z,71.17
2023-08-29T18:25:55.451Z,70.85
2023-08-29T18:28:22.246Z,71.13
2023-08-29T18:30:49.024Z,71.05
2023-08-29T18:33:15.659Z,71.20
2023-08-29T18:35:44.527Z,71.11
2023-08-29T18:38:12.568Z,71.33
2023-08-29T18:40:40.132Z,71.05
2023-08-29T18:43:06.940Z,71.08
2023-08-29T18:45:33.715Z,71.27
2023-08-29T18:48:00.479Z,71.33
2023-08-29T18:50:28.003Z,71.18
2023-08-29T18:52:55.264Z,71.02
2023-08-29T18:55:21.882Z,71.07
2023-08-29T18:57:48.813Z,71.45
2023-08-29T19:00:16.329Z,71.50
2023-08-29T19:02:44.113Z,71.32
2023-08-29T19:05:12.063Z,71.65
2023-08-29T19:07:39.499Z,71.52
2023-08-29T19:10:07.283Z,71.40
2023-08-29T19:12:34.418Z,71.38
2023-08-29T19:15:06.804Z,71.46
2023-08-29T19:17:35.172Z,71.26
2023-08-29T19:20:03.386Z,71.39
2023-08-29T19:22:30.408Z,71.17
2023-08-29T19:24:57.352Z,71.32
2023-08-29T19:29:53.818Z,71.53
2023-08-29T19:32:20.600Z,71.36
2023-08-29T19:34:47.526Z,71.39
2023-08-29T19:37:14.331Z,71.07
2023-08-29T19:39:41.117Z,71.30
2023-08-29T19:42:07.858Z,71.57
2023-08-29T19:44:34.675Z,71.25
2023-08-29T19:47:04.046Z,71.35
2023-08-29T19:49:38.537Z,71.39
2023-08-29T19:52:06.794Z,71.19
2023-08-29T19:54:33.740Z,71.42
2023-08-29T19:57:00.572Z,71.34
2023-08-29T19:59:27.358Z,71.42
2023-08-29T20:01:54.356Z,71.59
2023-08-29T20:04:21.119Z,71.49
2023-08-29T20:06:47.998Z,71.47
2023-08-29T20:09:14.803Z,71.20
2023-08-29T20:11:41.583Z,71.40
2023-08-29T20:14:08.413Z,71.62
2023-08-29T20:16:35.243Z,71.00
2023-08-29T20:19:02.178Z,71.51
2023-08-29T20:21:29.223Z,71.17
2023-08-29T20:24:02.530Z,71.62
2023-08-29T20:26:31.693Z,71.66
2023-08-29T20:29:00.911Z,71.53
2023-08-29T20:31:28.354Z,71.74
2023-08-29T20:33:55.319Z,71.67
2023-08-29T20:36:22.376Z,71.67
2023-08-29T20:38:49.284Z,71.26
2023-08-29T20:41:16.003Z,71.60
2023-08-29T20:43:43.209Z,71.67
2023-08-29T20:46:10.008Z,71.38
2023-08-29T20:48:36.871Z,71.33
2023-08-29T20:51:04.267Z,71.49
2023-08-29T20:53:35.554Z,71.33
2023-08-29T20:56:03.354Z,71.55
2023-08-29T20:58:30.452Z,71.75
2023-08-29T21:00:59.238Z,71.83
2023-08-29T21:03:31.860Z,71.42
2023-08-29T21:06:00.616Z,71.64
2023-08-29T21:08:27.855Z,71.24
2023-08-29T21:10:55.705Z,71.47
2023-08-29T21:13:23.661Z,71.59
2023-08-29T21:15:51.118Z,71.65
2023-08-29T21:18:19.782Z,71.51
2023-08-29T21:20:54.764Z,71.74
2023-08-29T21:23:23.197Z,71.56
2023-08-29T21:25:50.946Z,71.42
2023-08-29T21:28:20.849Z,71.71
2023-08-29T21:30:47.802Z,71.71
2023-08-29T21:33:15.145Z,71.61
2023-08-29T21:35:44.239Z,71.32
2023-08-29T21:38:12.272Z,71.48
2023-08-29T21:40:41.371Z,71.84
2023-08-29T21:43:12.478Z,71.86
2023-08-29T21:45:42.363Z,71.59
2023-08-29T21:48:11.134Z,71.48
2023-08-29T21:50:42.960Z,71.86
2023-08-29T21:53:11.513Z,71.66
2023-08-29T21:55:40.428Z,71.47
2023-08-29T21:58:11.822Z,71.68
2023-08-29T22:00:39.019Z,71.70
2023-08-29T22:03:07.118Z,72.02
2023-08-29T22:05:34.289Z,71.63
2023-08-29T22:08:01.199Z,71.67
2023-08-29T22:10:28.047Z,71.80
2023-08-29T22:12:55.082Z,71.79
2023-08-29T22:15:21.782Z,71.73
2023-08-29T22:17:49.146Z,71.62
2023-08-29T22:20:16.554Z,72.05
2023-08-29T22:22:43.292Z,71.97
2023-08-29T22:25:10.881Z,71.85
2023-08-29T22:27:38.086Z,71.73
2023-08-29T22:30:06.785Z,71.72
2023-08-29T22:32:33.935Z,71.58
2023-08-29T22:35:01.712Z,71.74
2023-08-29T22:37:28.870Z,71.62
2023-08-29T22:39:55.800Z,71.86
2023-08-29T22:42:23.176Z,71.54
2023-08-29T22:44:50.149Z,71.41
2023-08-29T22:47:16.998Z,71.32
2023-08-29T22:49:44.607Z,71.30
2023-08-29T22:52:11.516Z,71.68
2023-08-29T22:54:39.061Z,71.70
2023-08-29T22:57:06.578Z,71.42
2023-08-29T22:59:33.503Z,71.50
2023-08-29T23:02:00.921Z,71.58
2023-08-29T23:04:30.779Z,71.48
2023-08-29T23:07:05.552Z,71.57
2023-08-29T23:09:33.273Z,71.74
2023-08-29T23:12:01.954Z,71.40
2023-08-29T23:14:29.904Z,71.46
2023-08-29T23:16:57.911Z,71.57
2023-08-29T23:19:25.100Z,71.50
2023-08-29T23:21:55.727Z,71.33
2023-08-29T23:24:22.594Z,71.55
2023-08-29T23:26:49.555Z,71.09
2023-08-29T23:29:17.294Z,71.21
2023-08-29T23:31:44.530Z,71.64
2023-08-29T23:34:11.270Z,71.51
2023-08-29T23:36:38.798Z,71.45
2023-08-29T23:39:08.230Z,71.66
2023-08-29T23:41:35.468Z,71.75
2023-08-29T23:44:02.395Z,71.43
2023-08-29T23:46:29.625Z,71.21
2023-08-29T23:48:56.497Z,71.33
2023-08-29T23:51:23.589Z,71.69
2023-08-29T23:53:51.907Z,71.64
2023-08-29T23:56:18.903Z,71.71
2023-08-29T23:58:46.555Z,71.56
